CheckWX is a tool to help pilots better visualize weather data.  It is not intended as a substitute for an official pre-flight weather briefing.

05:56:38 UTC

OBBI METAR
Bahrain International Airport
Manama, Bahrain
Current

27 mins ago

OBBI 210530Z 29018KT 9999 FEW030 19/09 Q1018 NOSIG
Observed
Nov-21 @ 05:30 UTC
Wind
  • 290° at 18 KTS
Visibility
10,000+ meters
Flight Rules
VFR
Cloud Levels
  • Few at 3,000' AGL
Temperature
19°C / 66°F
Dewpoint
C / 48°F
Humidity
52%
Altimeter
30.06" Hg
Pressure
1017.92 hPa
Previous

57 mins ago

OBBI 210500Z 29015KT 9999 SCT030 18/09 Q1017 NOSIG
Observed
Nov-21 @ 05:00 UTC
Wind
  • 290° at 15 KTS
Visibility
10,000+ meters
Flight Rules
VFR
Cloud Levels
  • Scattered at 3,000' AGL
Temperature
18°C / 64°F
Dewpoint
C / 48°F
Humidity
56%
Altimeter
30.03" Hg
Pressure
1016.92 hPa
Previous

1 hour ago

OBBI 210430Z 29016KT 9999 FEW030 18/09 Q1017 NOSIG
Observed
Nov-21 @ 04:30 UTC
Wind
  • 290° at 16 KTS
Visibility
10,000+ meters
Flight Rules
VFR
Cloud Levels
  • Few at 3,000' AGL
Temperature
18°C / 64°F
Dewpoint
C / 48°F
Humidity
56%
Altimeter
30.03" Hg
Pressure
1016.92 hPa